createdAt,value
2023-05-08T00:01:11.665Z,8.07
2023-05-08T00:03:38.756Z,4.80
2023-05-08T00:06:06.256Z,5.63
2023-05-08T00:08:33.326Z,4.77
2023-05-08T00:11:00.162Z,6.83
2023-05-08T00:13:27.007Z,5.03
2023-05-08T00:15:53.813Z,4.60
2023-05-08T00:18:20.654Z,5.10
2023-05-08T00:20:47.380Z,4.90
2023-05-08T00:23:14.357Z,4.37
2023-05-08T00:25:41.203Z,5.87
2023-05-08T00:28:07.940Z,4.67
2023-05-08T00:30:34.779Z,5.23
2023-05-08T00:33:01.648Z,4.40
2023-05-08T00:35:28.532Z,4.40
2023-05-08T00:37:55.341Z,4.37
2023-05-08T00:40:22.248Z,6.13
2023-05-08T00:42:49.048Z,5.30
2023-05-08T00:45:15.813Z,4.70
2023-05-08T00:47:42.891Z,5.87
2023-05-08T00:50:10.892Z,5.17
2023-05-08T00:52:38.473Z,5.17
2023-05-08T00:55:06.620Z,4.83
2023-05-08T00:57:37.977Z,5.47
2023-05-08T01:00:05.926Z,5.77
2023-05-08T01:02:33.862Z,5.30
2023-05-08T01:05:00.804Z,5.00
2023-05-08T01:07:28.179Z,4.97
2023-05-08T01:09:54.899Z,5.53
2023-05-08T01:13:03.462Z,5.50
2023-05-08T01:15:38.033Z,5.00
2023-05-08T01:18:23.113Z,6.60
2023-05-08T01:21:14.807Z,5.70
2023-05-08T01:24:03.702Z,5.67
2023-05-08T01:26:30.393Z,6.50
2023-05-08T01:29:20.165Z,5.23
2023-05-08T01:32:10.782Z,5.10
2023-05-08T01:34:46.643Z,4.77
2023-05-08T01:37:17.163Z,5.33
2023-05-08T01:39:55.639Z,7.10
2023-05-08T01:42:57.213Z,5.50
2023-05-08T01:45:32.171Z,6.27
2023-05-08T01:48:35.178Z,5.97
2023-05-08T01:51:19.158Z,5.77
2023-05-08T01:53:55.076Z,5.33
2023-05-08T01:56:24.503Z,6.27
2023-05-08T01:58:54.521Z,7.47
2023-05-08T02:01:25.782Z,6.43
2023-05-08T02:03:54.762Z,6.77
2023-05-08T02:06:22.772Z,7.07
2023-05-08T02:08:50.165Z,8.00
2023-05-08T02:11:17.983Z,6.37
2023-05-08T02:13:47.837Z,7.53
2023-05-08T02:16:15.226Z,6.70
2023-05-08T02:18:48.406Z,6.67
2023-05-08T02:21:16.918Z,6.90
2023-05-08T02:23:45.378Z,6.67
2023-05-08T02:26:14.997Z,6.43
2023-05-08T02:28:42.120Z,6.03
2023-05-08T02:31:12.536Z,6.87
2023-05-08T02:33:42.261Z,6.10
2023-05-08T02:36:11.499Z,6.33
2023-05-08T02:38:39.828Z,5.43
2023-05-08T02:41:09.149Z,6.97
2023-05-08T02:43:36.113Z,6.40
2023-05-08T02:46:25.643Z,6.60
2023-05-08T02:48:58.239Z,9.27
2023-05-08T02:51:53.646Z,7.80
2023-05-08T02:54:26.820Z,7.30
2023-05-08T02:56:58.662Z,7.50
2023-05-08T02:59:42.533Z,7.97
2023-05-08T03:02:15.985Z,7.83
2023-05-08T03:04:53.163Z,8.27
2023-05-08T03:07:23.184Z,8.47
2023-05-08T03:09:56.986Z,8.87
2023-05-08T03:12:27.224Z,8.70
2023-05-08T03:15:19.239Z,8.50
2023-05-08T03:17:47.543Z,13.37
2023-05-08T03:20:17.778Z,7.93
2023-05-08T03:22:46.703Z,10.00
2023-05-08T03:25:16.878Z,8.40
2023-05-08T03:27:45.088Z,9.50
2023-05-08T03:30:13.621Z,7.43
2023-05-08T03:32:42.442Z,15.13
2023-05-08T03:35:09.921Z,7.73
2023-05-08T03:37:37.523Z,7.07
2023-05-08T03:40:04.684Z,6.63
2023-05-08T03:42:31.817Z,6.07
2023-05-08T03:44:59.450Z,6.93
2023-05-08T03:47:27.597Z,6.23
2023-05-08T03:49:55.196Z,5.57
2023-05-08T03:52:22.291Z,5.27
2023-05-08T03:54:49.094Z,6.90
2023-05-08T03:57:15.932Z,7.20
2023-05-08T03:59:48.853Z,7.43
2023-05-08T04:02:52.371Z,8.10
2023-05-08T04:05:37.780Z,8.23
2023-05-08T04:08:28.708Z,8.77
2023-05-08T04:11:09.968Z,8.23
2023-05-08T04:13:43.516Z,7.60
2023-05-08T04:16:17.672Z,7.77
2023-05-08T04:18:47.970Z,8.90
2023-05-08T04:21:20.582Z,8.47
2023-05-08T04:23:49.882Z,8.50
2023-05-08T04:26:18.161Z,8.63
2023-05-08T04:28:46.952Z,9.67
2023-05-08T04:31:17.227Z,8.80
2023-05-08T04:33:47.661Z,9.17
2023-05-08T04:36:14.655Z,8.73
2023-05-08T04:38:41.597Z,8.83
2023-05-08T04:41:08.812Z,10.20
2023-05-08T04:43:36.455Z,8.20
2023-05-08T04:46:06.434Z,7.80
2023-05-08T04:48:34.050Z,7.30
2023-05-08T04:51:01.115Z,9.90
2023-05-08T04:53:28.223Z,8.57
2023-05-08T04:55:55.069Z,7.30
2023-05-08T04:58:21.889Z,6.17
2023-05-08T05:00:48.898Z,5.43
2023-05-08T05:03:15.840Z,4.87
2023-05-08T05:05:42.844Z,5.07
2023-05-08T05:08:09.660Z,4.87
2023-05-08T05:10:38.099Z,8.80
2023-05-08T05:13:04.960Z,6.73
2023-05-08T05:15:31.826Z,5.50
2023-05-08T05:17:58.667Z,5.80
2023-05-08T05:20:25.607Z,6.20
2023-05-08T05:22:52.509Z,9.10
2023-05-08T05:25:19.307Z,6.50
2023-05-08T05:27:46.129Z,10.23
2023-05-08T05:30:14.416Z,8.03
2023-05-08T05:32:41.584Z,10.03
2023-05-08T05:35:09.926Z,9.53
2023-05-08T05:37:36.774Z,19.60
2023-05-08T05:40:03.862Z,14.13
2023-05-08T05:42:30.714Z,10.60
2023-05-08T05:44:57.876Z,11.33
2023-05-08T05:47:25.297Z,10.00
2023-05-08T05:49:52.219Z,10.00
2023-05-08T05:52:19.033Z,10.23
2023-05-08T05:54:46.732Z,11.43
2023-05-08T05:57:13.985Z,11.83
2023-05-08T05:59:41.273Z,10.57
2023-05-08T06:02:10.465Z,11.37
2023-05-08T06:04:37.567Z,10.60
2023-05-08T06:07:04.424Z,11.83
2023-05-08T06:09:31.210Z,12.07
2023-05-08T06:11:57.984Z,29.80
2023-05-08T06:14:24.800Z,14.03
2023-05-08T06:16:51.703Z,12.13
2023-05-08T06:19:18.504Z,11.47
2023-05-08T06:21:45.422Z,12.37
2023-05-08T06:24:12.214Z,11.37
2023-05-08T06:26:39.071Z,12.10
2023-05-08T06:29:05.869Z,11.90
2023-05-08T06:31:32.714Z,12.70
2023-05-08T06:33:59.445Z,12.53
2023-05-08T06:36:27.278Z,11.90
2023-05-08T06:38:54.135Z,12.93
2023-05-08T06:41:21.919Z,11.17
2023-05-08T06:43:48.749Z,14.83
2023-05-08T06:46:16.174Z,12.07
2023-05-08T06:48:43.114Z,12.37
2023-05-08T06:51:09.881Z,11.33
2023-05-08T06:53:36.815Z,9.90
2023-05-08T06:56:03.824Z,10.57
2023-05-08T06:58:32.191Z,10.73
2023-05-08T07:01:02.252Z,10.40
2023-05-08T07:03:29.031Z,10.80
2023-05-08T07:05:56.372Z,10.63
2023-05-08T07:08:23.165Z,10.60
2023-05-08T07:10:49.938Z,10.37
2023-05-08T07:13:21.675Z,10.27
2023-05-08T07:15:49.119Z,11.33
2023-05-08T07:18:16.064Z,10.33
2023-05-08T07:20:42.998Z,11.47
2023-05-08T07:23:10.084Z,10.20
2023-05-08T07:25:37.277Z,9.50
2023-05-08T07:28:04.241Z,10.37
2023-05-08T07:30:31.075Z,9.67
2023-05-08T07:32:58.021Z,10.63
2023-05-08T07:35:25.028Z,9.60
2023-05-08T07:37:51.845Z,9.83
2023-05-08T07:40:18.820Z,10.00
2023-05-08T07:42:45.589Z,10.57
2023-05-08T07:45:13.859Z,11.40
2023-05-08T07:47:52.072Z,11.23
2023-05-08T07:50:19.551Z,11.03
2023-05-08T07:52:49.836Z,13.57
2023-05-08T07:55:17.980Z,11.00
2023-05-08T07:57:45.100Z,11.03
2023-05-08T08:00:14.555Z,9.70
2023-05-08T08:02:42.404Z,11.43
2023-05-08T08:05:10.101Z,10.50
2023-05-08T08:07:37.501Z,9.27
2023-05-08T08:10:04.885Z,14.43
2023-05-08T08:12:32.104Z,11.43
2023-05-08T08:14:58.868Z,10.73
2023-05-08T08:17:28.520Z,15.17
2023-05-08T08:19:55.826Z,13.00
2023-05-08T08:22:23.222Z,11.47
2023-05-08T08:24:53.229Z,10.40
2023-05-08T08:27:21.581Z,9.33
2023-05-08T08:29:48.387Z,12.43
2023-05-08T08:32:15.172Z,10.33
2023-05-08T08:34:42.438Z,10.20
2023-05-08T08:37:09.230Z,10.07
2023-05-08T08:39:36.220Z,10.53
2023-05-08T08:42:03.645Z,10.60
2023-05-08T08:44:30.759Z,9.93
2023-05-08T08:46:59.919Z,11.67
2023-05-08T08:49:34.395Z,9.73
2023-05-08T08:52:15.644Z,11.83
2023-05-08T08:54:45.620Z,10.47
2023-05-08T08:57:14.359Z,10.20
2023-05-08T08:59:42.201Z,35.20
2023-05-08T09:02:15.130Z,11.43
2023-05-08T09:04:42.051Z,11.70
2023-05-08T09:07:10.531Z,11.87
2023-05-08T09:09:41.124Z,12.30
2023-05-08T09:12:09.539Z,12.03
2023-05-08T09:14:37.567Z,12.30
2023-05-08T09:17:04.404Z,11.30
2023-05-08T09:19:31.553Z,12.13
2023-05-08T09:22:01.615Z,12.83
2023-05-08T09:24:54.381Z,12.93
2023-05-08T09:27:22.837Z,15.40
2023-05-08T09:30:15.710Z,12.80
2023-05-08T09:32:44.623Z,11.57
2023-05-08T09:35:12.696Z,12.67
2023-05-08T09:37:42.204Z,12.40
2023-05-08T09:40:20.901Z,11.70
2023-05-08T09:42:49.287Z,14.43
2023-05-08T09:45:32.873Z,11.50
2023-05-08T09:47:59.827Z,13.03
2023-05-08T09:50:27.864Z,12.00
2023-05-08T09:52:55.052Z,12.13
2023-05-08T09:55:22.033Z,12.23
2023-05-08T09:57:53.128Z,11.63
2023-05-08T10:00:20.464Z,12.80
2023-05-08T10:03:03.773Z,13.10
2023-05-08T10:05:36.362Z,11.50
2023-05-08T10:08:23.767Z,11.73
2023-05-08T10:10:50.779Z,13.17
2023-05-08T10:13:17.776Z,11.87
2023-05-08T10:15:45.769Z,12.43
2023-05-08T10:18:13.790Z,12.83
2023-05-08T10:20:44.470Z,11.80
2023-05-08T10:23:15.723Z,12.00
2023-05-08T10:25:45.703Z,11.93
2023-05-08T10:28:43.003Z,14.17
2023-05-08T10:31:13.513Z,11.60
2023-05-08T10:33:44.825Z,12.40
2023-05-08T10:36:13.393Z,12.00
2023-05-08T10:38:41.813Z,11.70
2023-05-08T10:41:09.573Z,11.73
2023-05-08T10:43:41.555Z,12.13
2023-05-08T10:46:18.273Z,11.30
2023-05-08T10:48:50.672Z,11.87
2023-05-08T10:51:40.941Z,11.20
2023-05-08T10:54:46.072Z,10.83
2023-05-08T10:57:13.094Z,10.53
2023-05-08T10:59:48.488Z,10.83
2023-05-08T11:02:16.649Z,11.20
2023-05-08T11:04:44.077Z,10.90
2023-05-08T11:07:11.636Z,12.30
2023-05-08T11:09:41.439Z,11.30
2023-05-08T11:12:18.493Z,11.10
2023-05-08T11:15:06.352Z,14.00
2023-05-08T11:17:34.183Z,12.30
2023-05-08T11:20:03.399Z,11.47
2023-05-08T11:22:37.059Z,11.80
2023-05-08T11:25:07.300Z,12.07
2023-05-08T11:27:37.610Z,9.73
2023-05-08T11:30:20.943Z,10.77
2023-05-08T11:32:59.421Z,9.97
2023-05-08T11:35:46.331Z,10.67
2023-05-08T11:38:17.365Z,10.00
2023-05-08T11:41:03.215Z,10.73
2023-05-08T11:43:33.268Z,9.83
2023-05-08T11:46:21.881Z,9.43
2023-05-08T11:48:49.292Z,10.27
2023-05-08T11:51:19.824Z,10.80
2023-05-08T11:53:47.545Z,9.83
2023-05-08T11:56:14.768Z,13.57
2023-05-08T11:58:41.773Z,9.93
2023-05-08T12:01:08.582Z,10.97
2023-05-08T12:03:35.771Z,10.03
2023-05-08T12:06:02.810Z,11.33
2023-05-08T12:08:29.729Z,10.13
2023-05-08T12:10:57.886Z,10.00
2023-05-08T12:13:29.990Z,9.90
2023-05-08T12:15:59.471Z,11.73
2023-05-08T12:18:28.379Z,10.33
2023-05-08T12:20:58.595Z,10.23
2023-05-08T12:23:26.694Z,10.23
2023-05-08T12:25:55.385Z,10.63
2023-05-08T12:28:23.047Z,11.57
2023-05-08T12:30:50.484Z,10.33
2023-05-08T12:33:18.565Z,10.77
2023-05-08T12:35:45.705Z,13.43
2023-05-08T12:38:12.852Z,11.67
2023-05-08T12:40:45.007Z,10.50
2023-05-08T12:43:12.285Z,10.60
2023-05-08T12:45:41.163Z,9.93
2023-05-08T12:48:10.392Z,9.60
2023-05-08T12:50:42.195Z,9.73
2023-05-08T12:53:16.798Z,10.83
2023-05-08T12:55:54.565Z,9.90
2023-05-08T12:58:25.907Z,9.30
2023-05-08T13:00:53.848Z,9.73
2023-05-08T13:03:28.438Z,9.90
2023-05-08T13:05:57.170Z,9.70
2023-05-08T13:08:38.472Z,10.27
2023-05-08T13:11:06.596Z,10.07
2023-05-08T13:13:35.803Z,10.87
2023-05-08T13:16:05.212Z,11.73
2023-05-08T13:18:32.825Z,14.53
2023-05-08T13:21:01.412Z,10.17
2023-05-08T13:23:28.303Z,11.07
2023-05-08T13:25:56.121Z,11.87
2023-05-08T13:28:23.234Z,9.70
2023-05-08T13:30:50.420Z,9.60
2023-05-08T13:33:17.954Z,9.70
2023-05-08T13:35:44.836Z,10.53
2023-05-08T13:38:11.703Z,10.73
2023-05-08T13:40:38.643Z,9.33
2023-05-08T13:43:07.554Z,10.77
2023-05-08T13:45:34.520Z,9.83
2023-05-08T13:48:01.492Z,10.90
2023-05-08T13:50:28.903Z,9.67
2023-05-08T13:52:55.856Z,10.53
2023-05-08T13:55:23.456Z,10.40
2023-05-08T13:57:50.990Z,10.97
2023-05-08T14:00:18.293Z,9.63
2023-05-08T14:02:45.539Z,9.67
2023-05-08T14:05:12.826Z,10.23
2023-05-08T14:07:40.118Z,13.00
2023-05-08T14:10:07.152Z,9.63
2023-05-08T14:12:37.369Z,11.00
2023-05-08T14:15:05.599Z,10.47
2023-05-08T14:17:33.208Z,10.23
2023-05-08T14:20:00.976Z,10.27
2023-05-08T14:22:27.838Z,10.57
2023-05-08T14:24:54.794Z,8.93
2023-05-08T14:27:21.906Z,9.73
2023-05-08T14:29:49.417Z,10.03
2023-05-08T14:32:16.313Z,7.67
2023-05-08T14:34:43.218Z,8.00
2023-05-08T14:37:10.102Z,13.60
2023-05-08T14:39:37.020Z,8.73
2023-05-08T14:44:33.811Z,11.53
2023-05-08T14:47:00.899Z,9.40
2023-05-08T14:49:36.497Z,9.10
2023-05-08T14:52:05.690Z,8.80
2023-05-08T14:54:33.132Z,9.70
2023-05-08T14:57:00.433Z,9.20
2023-05-08T14:59:27.510Z,9.80
2023-05-08T15:01:54.434Z,10.13
2023-05-08T15:04:21.611Z,14.10
2023-05-08T15:06:48.549Z,8.70
2023-05-08T15:09:16.706Z,8.63
2023-05-08T15:11:44.005Z,9.33
2023-05-08T15:14:11.014Z,8.07
2023-05-08T15:16:38.024Z,8.93
2023-05-08T15:19:04.900Z,8.80
2023-05-08T15:21:32.095Z,8.07
2023-05-08T15:23:59.079Z,9.03
2023-05-08T15:26:26.117Z,8.70
2023-05-08T15:28:53.069Z,8.73
2023-05-08T15:31:19.913Z,8.03
2023-05-08T15:33:48.486Z,9.03
2023-05-08T15:36:15.955Z,4.90
2023-05-08T15:38:43.183Z,4.67
2023-05-08T15:41:14.776Z,5.07
2023-05-08T15:43:44.954Z,4.77
2023-05-08T15:46:11.905Z,5.03
2023-05-08T15:48:38.793Z,4.67
2023-05-08T15:51:05.861Z,4.40
2023-05-08T15:53:34.203Z,4.83
2023-05-08T15:56:01.362Z,6.07
2023-05-08T15:58:28.554Z,4.50
2023-05-08T16:00:57.013Z,4.97
2023-05-08T16:03:24.470Z,4.90
2023-05-08T16:05:51.397Z,4.53
2023-05-08T16:08:18.358Z,5.50
2023-05-08T16:10:45.316Z,5.37
2023-05-08T16:13:12.250Z,8.87
2023-05-08T16:15:39.143Z,6.47
2023-05-08T16:18:06.581Z,8.27
2023-05-08T16:20:35.746Z,7.13
2023-05-08T16:23:03.068Z,5.90
2023-05-08T16:25:29.797Z,5.80
2023-05-08T16:27:57.184Z,6.53
2023-05-08T16:30:24.347Z,6.27
2023-05-08T16:32:51.557Z,7.80
2023-05-08T16:35:19.492Z,6.47
2023-05-08T16:37:46.715Z,6.20
2023-05-08T16:40:14.027Z,6.43
2023-05-08T16:42:40.935Z,6.00
2023-05-08T16:45:08.450Z,5.77
2023-05-08T16:47:36.088Z,6.43
2023-05-08T16:50:06.764Z,6.70
2023-05-08T16:52:33.520Z,6.37
2023-05-08T16:55:00.645Z,6.43
2023-05-08T16:57:27.817Z,6.27
2023-05-08T16:59:54.623Z,5.77
2023-05-08T17:02:22.076Z,9.37
2023-05-08T17:04:49.567Z,7.60
2023-05-08T17:07:16.994Z,7.60
2023-05-08T17:09:44.440Z,6.80
2023-05-08T17:12:11.309Z,6.77
2023-05-08T17:14:39.976Z,6.17
2023-05-08T17:17:07.350Z,7.53
2023-05-08T17:19:34.301Z,9.17
2023-05-08T17:22:01.190Z,7.90
2023-05-08T17:24:29.917Z,6.97
2023-05-08T17:26:56.751Z,11.80
2023-05-08T17:29:25.679Z,7.77
2023-05-08T17:31:52.550Z,9.00
2023-05-08T17:34:19.436Z,7.73
2023-05-08T17:36:46.324Z,8.80
2023-05-08T17:39:13.228Z,7.90
2023-05-08T17:41:40.386Z,9.83
2023-05-08T17:44:07.286Z,6.53
2023-05-08T17:46:34.119Z,7.17
2023-05-08T17:49:01.025Z,8.83
2023-05-08T17:51:27.904Z,9.60
2023-05-08T17:53:56.503Z,7.93
2023-05-08T17:56:23.635Z,8.10
2023-05-08T17:58:52.507Z,8.70
2023-05-08T18:01:20.237Z,9.73
2023-05-08T18:03:48.468Z,8.97
2023-05-08T18:06:16.736Z,9.97
2023-05-08T18:08:44.523Z,8.77
2023-05-08T18:11:25.966Z,9.23
2023-05-08T18:13:54.229Z,9.90
2023-05-08T18:16:22.234Z,8.83
2023-05-08T18:18:50.142Z,11.87
2023-05-08T18:21:17.351Z,11.17
2023-05-08T18:23:44.336Z,9.80
2023-05-08T18:26:17.535Z,9.93
2023-05-08T18:28:44.700Z,11.23
2023-05-08T18:31:12.243Z,11.50
2023-05-08T18:33:39.309Z,12.10
2023-05-08T18:36:07.107Z,10.87
2023-05-08T18:38:34.878Z,9.77
2023-05-08T18:41:03.393Z,10.03
2023-05-08T18:43:30.371Z,9.93
2023-05-08T18:45:58.053Z,10.17
2023-05-08T18:48:26.284Z,10.97
2023-05-08T18:50:53.178Z,13.00
2023-05-08T18:53:19.934Z,12.57
2023-05-08T18:55:46.718Z,10.67
2023-05-08T18:58:13.670Z,10.77
2023-05-08T19:00:40.666Z,11.50
2023-05-08T19:03:07.463Z,11.50
2023-05-08T19:05:34.296Z,11.93
2023-05-08T19:08:01.046Z,11.07
2023-05-08T19:10:27.956Z,10.70
2023-05-08T19:12:54.748Z,10.53
2023-05-08T19:15:21.601Z,9.27
2023-05-08T19:17:48.427Z,10.00
2023-05-08T19:20:15.710Z,10.73
2023-05-08T19:22:42.876Z,9.43
2023-05-08T19:25:09.994Z,9.70
2023-05-08T19:27:36.879Z,9.03
2023-05-08T19:30:06.770Z,9.60
2023-05-08T19:32:33.783Z,10.60
2023-05-08T19:35:02.556Z,11.17
2023-05-08T19:37:29.538Z,10.47
2023-05-08T19:39:56.649Z,11.23
2023-05-08T19:42:23.607Z,11.00
2023-05-08T19:44:50.480Z,10.63
2023-05-08T19:47:17.342Z,10.57
2023-05-08T19:49:44.061Z,10.80
2023-05-08T19:52:11.717Z,10.40
2023-05-08T19:54:38.610Z,15.07
2023-05-08T19:57:05.405Z,9.50
2023-05-08T19:59:32.152Z,10.00
2023-05-08T20:01:59.058Z,11.90
2023-05-08T20:04:25.937Z,10.17
2023-05-08T20:06:52.713Z,13.17
2023-05-08T20:09:19.481Z,11.00
2023-05-08T20:11:47.136Z,12.30
2023-05-08T20:14:14.002Z,11.87
2023-05-08T20:16:41.941Z,14.07
2023-05-08T20:19:08.889Z,13.80
2023-05-08T20:21:36.393Z,12.10
2023-05-08T20:24:03.231Z,14.53
2023-05-08T20:26:30.514Z,14.57
2023-05-08T20:28:57.573Z,16.13
2023-05-08T20:31:30.714Z,16.03
2023-05-08T20:33:59.518Z,15.87
2023-05-08T20:36:26.810Z,17.93
2023-05-08T20:38:53.714Z,15.13
2023-05-08T20:41:20.537Z,14.07
2023-05-08T20:43:47.581Z,14.13
2023-05-08T20:46:14.437Z,17.50
2023-05-08T20:48:43.446Z,13.73
2023-05-08T20:51:10.252Z,15.23
2023-05-08T20:53:37.079Z,15.57
2023-05-08T20:56:05.066Z,17.77
2023-05-08T20:58:32.158Z,17.33
2023-05-08T21:01:01.294Z,17.13
2023-05-08T21:03:28.066Z,17.43
2023-05-08T21:05:55.596Z,18.27
2023-05-08T21:08:29.129Z,18.83
2023-05-08T21:10:55.995Z,17.67
2023-05-08T21:13:22.853Z,18.27
2023-05-08T21:15:50.618Z,18.00
2023-05-08T21:18:17.772Z,15.87
2023-05-08T21:20:50.375Z,16.33
2023-05-08T21:23:18.250Z,14.30
2023-05-08T21:25:49.161Z,16.70
2023-05-08T21:28:16.460Z,14.93
2023-05-08T21:30:46.471Z,16.47
2023-05-08T21:33:16.201Z,16.03
2023-05-08T21:35:43.773Z,12.87
2023-05-08T21:38:12.179Z,14.50
2023-05-08T21:40:39.255Z,12.57
2023-05-08T21:43:06.660Z,10.47
2023-05-08T21:45:33.581Z,10.70
2023-05-08T21:48:00.665Z,10.40
2023-05-08T21:50:30.335Z,11.20
2023-05-08T21:52:57.218Z,10.80
2023-05-08T21:55:24.670Z,9.17
2023-05-08T21:57:52.043Z,8.80
2023-05-08T22:00:20.136Z,9.20
2023-05-08T22:02:47.237Z,10.33
2023-05-08T22:05:14.698Z,8.23
2023-05-08T22:07:41.727Z,9.27
2023-05-08T22:10:10.543Z,8.87
2023-05-08T22:12:37.574Z,10.50
2023-05-08T22:15:14.998Z,8.47
2023-05-08T22:17:50.637Z,9.80
2023-05-08T22:20:18.149Z,8.17
2023-05-08T22:22:45.320Z,8.37
2023-05-08T22:25:12.375Z,9.50
2023-05-08T22:27:39.470Z,9.63
2023-05-08T22:30:06.942Z,8.10
2023-05-08T22:32:33.877Z,9.27
2023-05-08T22:35:00.824Z,9.10
2023-05-08T22:37:27.695Z,8.40
2023-05-08T22:39:54.495Z,10.83
2023-05-08T22:42:21.473Z,13.87
2023-05-08T22:44:48.560Z,12.90
2023-05-08T22:47:15.708Z,13.97
2023-05-08T22:49:42.870Z,13.57
2023-05-08T22:52:10.422Z,13.83
2023-05-08T22:54:37.261Z,12.60
2023-05-08T22:57:04.148Z,13.20
2023-05-08T22:59:30.979Z,13.80
2023-05-08T23:01:57.791Z,12.67
2023-05-08T23:04:24.890Z,13.17
2023-05-08T23:06:51.667Z,13.00
2023-05-08T23:09:18.421Z,14.63
2023-05-08T23:11:45.786Z,13.87
2023-05-08T23:14:12.796Z,13.43
2023-05-08T23:16:39.616Z,14.73
2023-05-08T23:19:07.374Z,14.30
2023-05-08T23:21:34.217Z,16.23
2023-05-08T23:24:01.169Z,14.10
2023-05-08T23:26:27.991Z,14.30
2023-05-08T23:28:54.753Z,13.33
2023-05-08T23:31:21.680Z,14.93
2023-05-08T23:33:48.495Z,14.30
2023-05-08T23:36:15.466Z,13.70
2023-05-08T23:38:42.232Z,23.17
2023-05-08T23:41:10.056Z,15.37
2023-05-08T23:43:36.978Z,13.00
2023-05-08T23:46:03.791Z,13.43
2023-05-08T23:48:30.688Z,13.37
2023-05-08T23:50:57.468Z,11.70
2023-05-08T23:53:24.316Z,11.43
2023-05-08T23:55:52.425Z,14.27
2023-05-08T23:58:19.455Z,12.67
